sensor_id;sensor_type;location;lat;lon;timestamp;P1;durP1;ratioP1;P2;durP2;ratioP2
5454;SDS011;2750;49.050;9.250;2022-12-29T00:02:25;3.13;;;2.00;;
5454;SDS011;2750;49.050;9.250;2022-12-29T00:07:28;3.83;;;2.13;;
5454;SDS011;2750;49.050;9.250;2022-12-29T00:12:30;2.03;;;1.83;;
5454;SDS011;2750;49.050;9.250;2022-12-29T00:17:51;2.83;;;2.23;;
5454;SDS011;2750;49.050;9.250;2022-12-29T00:22:54;3.30;;;2.50;;
5454;SDS011;2750;49.050;9.250;2022-12-29T00:28:12;5.23;;;2.50;;
5454;SDS011;2750;49.050;9.250;2022-12-29T00:33:32;2.90;;;1.90;;
5454;SDS011;2750;49.050;9.250;2022-12-29T00:38:54;2.43;;;2.00;;
5454;SDS011;2750;49.050;9.250;2022-12-29T00:44:17;2.77;;;2.00;;
5454;SDS011;2750;49.050;9.250;2022-12-29T00:49:19;2.10;;;1.90;;
5454;SDS011;2750;49.050;9.250;2022-12-29T00:54:34;3.30;;;2.07;;
5454;SDS011;2750;49.050;9.250;2022-12-29T00:59:37;2.33;;;2.00;;
5454;SDS011;2750;49.050;9.250;2022-12-29T01:04:40;3.33;;;2.10;;
5454;SDS011;2750;49.050;9.250;2022-12-29T01:09:43;3.97;;;2.00;;
5454;SDS011;2750;49.050;9.250;2022-12-29T01:15:02;3.67;;;1.80;;
5454;SDS011;2750;49.050;9.250;2022-12-29T01:20:04;2.27;;;2.07;;
5454;SDS011;2750;49.050;9.250;2022-12-29T01:25:08;3.13;;;1.87;;
5454;SDS011;2750;49.050;9.250;2022-12-29T01:30:10;2.00;;;1.80;;
5454;SDS011;2750;49.050;9.250;2022-12-29T01:35:12;3.37;;;1.67;;
5454;SDS011;2750;49.050;9.250;2022-12-29T01:40:15;2.27;;;1.70;;
5454;SDS011;2750;49.050;9.250;2022-12-29T01:45:17;1.80;;;1.50;;
5454;SDS011;2750;49.050;9.250;2022-12-29T01:50:20;3.07;;;1.87;;
5454;SDS011;2750;49.050;9.250;2022-12-29T01:55:29;2.30;;;1.80;;
5454;SDS011;2750;49.050;9.250;2022-12-29T02:00:35;3.17;;;1.67;;
5454;SDS011;2750;49.050;9.250;2022-12-29T02:05:39;2.63;;;2.10;;
5454;SDS011;2750;49.050;9.250;2022-12-29T02:10:48;2.43;;;1.67;;
5454;SDS011;2750;49.050;9.250;2022-12-29T02:15:51;2.33;;;1.90;;
5454;SDS011;2750;49.050;9.250;2022-12-29T02:32:21;1.70;;;1.60;;
5454;SDS011;2750;49.050;9.250;2022-12-29T02:37:30;2.00;;;1.80;;
5454;SDS011;2750;49.050;9.250;2022-12-29T02:42:40;4.27;;;2.17;;
5454;SDS011;2750;49.050;9.250;2022-12-29T02:47:51;2.10;;;1.90;;
5454;SDS011;2750;49.050;9.250;2022-12-29T02:52:58;2.77;;;1.80;;
5454;SDS011;2750;49.050;9.250;2022-12-29T02:58:13;2.13;;;1.93;;
5454;SDS011;2750;49.050;9.250;2022-12-29T03:03:20;3.80;;;2.00;;
5454;SDS011;2750;49.050;9.250;2022-12-29T03:08:34;2.33;;;2.07;;
5454;SDS011;2750;49.050;9.250;2022-12-29T03:13:46;2.10;;;1.83;;
5454;SDS011;2750;49.050;9.250;2022-12-29T03:19:14;3.07;;;1.87;;
5454;SDS011;2750;49.050;9.250;2022-12-29T03:24:18;2.00;;;1.80;;
5454;SDS011;2750;49.050;9.250;2022-12-29T03:29:23;5.63;;;1.83;;
5454;SDS011;2750;49.050;9.250;2022-12-29T03:34:27;2.50;;;1.23;;
5454;SDS011;2750;49.050;9.250;2022-12-29T03:39:31;1.77;;;1.47;;
5454;SDS011;2750;49.050;9.250;2022-12-29T03:44:33;2.93;;;1.50;;
5454;SDS011;2750;49.050;9.250;2022-12-29T03:49:37;3.70;;;1.70;;
5454;SDS011;2750;49.050;9.250;2022-12-29T03:54:39;1.53;;;1.40;;
5454;SDS011;2750;49.050;9.250;2022-12-29T03:59:40;2.03;;;1.40;;
5454;SDS011;2750;49.050;9.250;2022-12-29T04:04:43;1.93;;;1.50;;
5454;SDS011;2750;49.050;9.250;2022-12-29T04:09:44;2.33;;;1.60;;
5454;SDS011;2750;49.050;9.250;2022-12-29T04:14:46;3.67;;;1.40;;
5454;SDS011;2750;49.050;9.250;2022-12-29T04:19:48;2.97;;;2.00;;
5454;SDS011;2750;49.050;9.250;2022-12-29T04:24:50;2.50;;;1.47;;
5454;SDS011;2750;49.050;9.250;2022-12-29T04:29:51;1.50;;;1.40;;
5454;SDS011;2750;49.050;9.250;2022-12-29T04:34:54;2.07;;;1.30;;
5454;SDS011;2750;49.050;9.250;2022-12-29T04:39:56;2.60;;;1.63;;
5454;SDS011;2750;49.050;9.250;2022-12-29T04:44:57;2.03;;;1.37;;
5454;SDS011;2750;49.050;9.250;2022-12-29T04:50:00;2.33;;;1.23;;
5454;SDS011;2750;49.050;9.250;2022-12-29T04:55:01;2.97;;;1.20;;
5454;SDS011;2750;49.050;9.250;2022-12-29T05:00:04;3.53;;;1.53;;
5454;SDS011;2750;49.050;9.250;2022-12-29T05:05:08;1.67;;;1.20;;
5454;SDS011;2750;49.050;9.250;2022-12-29T05:10:10;2.40;;;1.40;;
5454;SDS011;2750;49.050;9.250;2022-12-29T05:15:12;1.67;;;1.47;;
5454;SDS011;2750;49.050;9.250;2022-12-29T05:20:15;2.47;;;1.43;;
5454;SDS011;2750;49.050;9.250;2022-12-29T05:25:16;3.73;;;1.50;;
5454;SDS011;2750;49.050;9.250;2022-12-29T05:30:18;1.87;;;1.50;;
5454;SDS011;2750;49.050;9.250;2022-12-29T05:35:21;2.77;;;1.80;;
5454;SDS011;2750;49.050;9.250;2022-12-29T05:40:22;2.40;;;1.30;;
5454;SDS011;2750;49.050;9.250;2022-12-29T05:45:24;3.20;;;1.40;;
5454;SDS011;2750;49.050;9.250;2022-12-29T05:50:27;2.70;;;1.47;;
5454;SDS011;2750;49.050;9.250;2022-12-29T05:55:29;4.20;;;1.83;;
5454;SDS011;2750;49.050;9.250;2022-12-29T06:00:30;2.40;;;1.40;;
5454;SDS011;2750;49.050;9.250;2022-12-29T06:05:33;3.30;;;1.93;;
5454;SDS011;2750;49.050;9.250;2022-12-29T06:10:35;2.00;;;1.80;;
5454;SDS011;2750;49.050;9.250;2022-12-29T06:15:36;4.47;;;1.60;;
5454;SDS011;2750;49.050;9.250;2022-12-29T06:20:40;3.67;;;1.87;;
5454;SDS011;2750;49.050;9.250;2022-12-29T06:25:41;2.90;;;2.10;;
5454;SDS011;2750;49.050;9.250;2022-12-29T06:30:43;2.10;;;1.83;;
5454;SDS011;2750;49.050;9.250;2022-12-29T06:35:46;2.93;;;1.83;;
5454;SDS011;2750;49.050;9.250;2022-12-29T06:40:48;3.70;;;1.93;;
5454;SDS011;2750;49.050;9.250;2022-12-29T06:45:49;1.87;;;1.70;;
5454;SDS011;2750;49.050;9.250;2022-12-29T06:50:52;3.90;;;2.00;;
5454;SDS011;2750;49.050;9.250;2022-12-29T06:55:53;2.27;;;1.77;;
5454;SDS011;2750;49.050;9.250;2022-12-29T07:00:56;3.97;;;1.93;;
5454;SDS011;2750;49.050;9.250;2022-12-29T07:05:59;5.83;;;1.77;;
5454;SDS011;2750;49.050;9.250;2022-12-29T07:11:01;4.07;;;1.83;;
5454;SDS011;2750;49.050;9.250;2022-12-29T07:16:04;2.97;;;1.73;;
5454;SDS011;2750;49.050;9.250;2022-12-29T07:21:08;4.43;;;1.80;;
5454;SDS011;2750;49.050;9.250;2022-12-29T07:26:11;3.87;;;2.00;;
5454;SDS011;2750;49.050;9.250;2022-12-29T07:31:18;4.77;;;1.90;;
5454;SDS011;2750;49.050;9.250;2022-12-29T07:36:22;2.73;;;1.90;;
5454;SDS011;2750;49.050;9.250;2022-12-29T07:41:23;2.30;;;2.00;;
5454;SDS011;2750;49.050;9.250;2022-12-29T07:46:25;2.37;;;2.07;;
5454;SDS011;2750;49.050;9.250;2022-12-29T07:51:28;2.87;;;2.10;;
5454;SDS011;2750;49.050;9.250;2022-12-29T07:56:29;1.77;;;1.47;;
5454;SDS011;2750;49.050;9.250;2022-12-29T08:01:31;3.30;;;1.63;;
5454;SDS011;2750;49.050;9.250;2022-12-29T08:06:33;2.93;;;1.73;;
5454;SDS011;2750;49.050;9.250;2022-12-29T08:11:35;3.80;;;2.20;;
5454;SDS011;2750;49.050;9.250;2022-12-29T08:16:37;2.17;;;1.70;;
5454;SDS011;2750;49.050;9.250;2022-12-29T08:21:40;3.70;;;1.70;;
5454;SDS011;2750;49.050;9.250;2022-12-29T08:26:41;3.73;;;2.10;;
5454;SDS011;2750;49.050;9.250;2022-12-29T08:31:43;4.17;;;2.10;;
5454;SDS011;2750;49.050;9.250;2022-12-29T08:36:46;1.83;;;1.70;;
5454;SDS011;2750;49.050;9.250;2022-12-29T08:41:47;1.93;;;1.73;;
5454;SDS011;2750;49.050;9.250;2022-12-29T08:46:49;2.13;;;1.77;;
5454;SDS011;2750;49.050;9.250;2022-12-29T08:51:51;1.90;;;1.70;;
5454;SDS011;2750;49.050;9.250;2022-12-29T08:56:53;1.80;;;1.40;;
5454;SDS011;2750;49.050;9.250;2022-12-29T09:01:54;4.40;;;2.20;;
5454;SDS011;2750;49.050;9.250;2022-12-29T09:06:57;2.00;;;1.80;;
5454;SDS011;2750;49.050;9.250;2022-12-29T09:11:59;2.93;;;2.10;;
5454;SDS011;2750;49.050;9.250;2022-12-29T09:17:00;4.27;;;2.30;;
5454;SDS011;2750;49.050;9.250;2022-12-29T09:22:20;4.23;;;1.90;;
5454;SDS011;2750;49.050;9.250;2022-12-29T09:27:22;2.23;;;1.90;;
5454;SDS011;2750;49.050;9.250;2022-12-29T09:32:23;4.80;;;2.13;;
5454;SDS011;2750;49.050;9.250;2022-12-29T09:37:26;2.80;;;2.10;;
5454;SDS011;2750;49.050;9.250;2022-12-29T09:42:29;4.43;;;1.93;;
5454;SDS011;2750;49.050;9.250;2022-12-29T09:47:38;3.13;;;2.03;;
5454;SDS011;2750;49.050;9.250;2022-12-29T09:52:42;4.43;;;1.97;;
5454;SDS011;2750;49.050;9.250;2022-12-29T09:57:49;2.40;;;1.87;;
5454;SDS011;2750;49.050;9.250;2022-12-29T10:02:56;3.97;;;2.00;;
5454;SDS011;2750;49.050;9.250;2022-12-29T10:08:07;3.00;;;2.20;;
5454;SDS011;2750;49.050;9.250;2022-12-29T10:13:23;2.67;;;1.80;;
5454;SDS011;2750;49.050;9.250;2022-12-29T10:24:06;3.47;;;1.80;;
5454;SDS011;2750;49.050;9.250;2022-12-29T10:29:13;4.60;;;1.77;;
5454;SDS011;2750;49.050;9.250;2022-12-29T10:34:19;2.60;;;1.67;;
5454;SDS011;2750;49.050;9.250;2022-12-29T10:39:27;2.23;;;1.70;;
5454;SDS011;2750;49.050;9.250;2022-12-29T10:44:34;5.50;;;1.57;;
5454;SDS011;2750;49.050;9.250;2022-12-29T10:49:37;2.37;;;1.53;;
5454;SDS011;2750;49.050;9.250;2022-12-29T10:54:45;2.20;;;1.67;;
5454;SDS011;2750;49.050;9.250;2022-12-29T10:59:50;2.60;;;0.90;;
5454;SDS011;2750;49.050;9.250;2022-12-29T11:04:53;2.00;;;1.50;;
5454;SDS011;2750;49.050;9.250;2022-12-29T11:15:20;3.80;;;1.70;;
5454;SDS011;2750;49.050;9.250;2022-12-29T11:20:27;1.47;;;1.37;;
5454;SDS011;2750;49.050;9.250;2022-12-29T11:25:32;2.83;;;1.60;;
5454;SDS011;2750;49.050;9.250;2022-12-29T11:30:34;2.60;;;1.50;;
5454;SDS011;2750;49.050;9.250;2022-12-29T11:35:38;1.53;;;1.07;;
5454;SDS011;2750;49.050;9.250;2022-12-29T11:40:43;1.60;;;1.40;;
5454;SDS011;2750;49.050;9.250;2022-12-29T11:45:45;1.80;;;1.40;;
5454;SDS011;2750;49.050;9.250;2022-12-29T11:50:48;3.10;;;1.77;;
5454;SDS011;2750;49.050;9.250;2022-12-29T11:55:54;2.73;;;1.80;;
5454;SDS011;2750;49.050;9.250;2022-12-29T12:00:59;5.20;;;2.13;;
5454;SDS011;2750;49.050;9.250;2022-12-29T12:06:04;2.60;;;1.60;;
5454;SDS011;2750;49.050;9.250;2022-12-29T12:11:14;3.17;;;1.97;;
5454;SDS011;2750;49.050;9.250;2022-12-29T12:16:19;3.27;;;2.70;;
5454;SDS011;2750;49.050;9.250;2022-12-29T12:21:27;3.83;;;2.27;;
5454;SDS011;2750;49.050;9.250;2022-12-29T12:26:39;3.90;;;3.20;;
5454;SDS011;2750;49.050;9.250;2022-12-29T12:31:56;1.50;;;1.40;;
5454;SDS011;2750;49.050;9.250;2022-12-29T12:37:15;2.77;;;1.50;;
5454;SDS011;2750;49.050;9.250;2022-12-29T12:42:34;1.20;;;1.10;;
5454;SDS011;2750;49.050;9.250;2022-12-29T12:47:51;2.50;;;1.63;;
5454;SDS011;2750;49.050;9.250;2022-12-29T12:53:07;1.73;;;1.63;;
5454;SDS011;2750;49.050;9.250;2022-12-29T12:58:24;4.17;;;3.13;;
5454;SDS011;2750;49.050;9.250;2022-12-29T13:03:36;1.40;;;1.30;;
5454;SDS011;2750;49.050;9.250;2022-12-29T13:08:49;1.33;;;1.10;;
5454;SDS011;2750;49.050;9.250;2022-12-29T13:14:14;2.50;;;1.47;;
5454;SDS011;2750;49.050;9.250;2022-12-29T13:19:27;2.17;;;1.33;;
5454;SDS011;2750;49.050;9.250;2022-12-29T13:24:36;3.00;;;1.30;;
5454;SDS011;2750;49.050;9.250;2022-12-29T13:29:53;1.47;;;1.37;;
5454;SDS011;2750;49.050;9.250;2022-12-29T13:35:04;1.90;;;1.27;;
5454;SDS011;2750;49.050;9.250;2022-12-29T13:40:17;1.97;;;1.40;;
5454;SDS011;2750;49.050;9.250;2022-12-29T13:45:24;1.37;;;1.27;;
5454;SDS011;2750;49.050;9.250;2022-12-29T13:50:29;1.83;;;1.63;;
5454;SDS011;2750;49.050;9.250;2022-12-29T13:55:37;3.00;;;1.50;;
5454;SDS011;2750;49.050;9.250;2022-12-29T14:00:48;1.47;;;1.23;;
5454;SDS011;2750;49.050;9.250;2022-12-29T14:06:03;2.03;;;1.50;;
5454;SDS011;2750;49.050;9.250;2022-12-29T14:11:14;2.37;;;1.43;;
5454;SDS011;2750;49.050;9.250;2022-12-29T14:16:31;3.20;;;1.80;;
5454;SDS011;2750;49.050;9.250;2022-12-29T14:21:34;3.10;;;2.00;;
5454;SDS011;2750;49.050;9.250;2022-12-29T14:26:37;3.50;;;1.67;;
5454;SDS011;2750;49.050;9.250;2022-12-29T14:31:40;1.53;;;1.43;;
5454;SDS011;2750;49.050;9.250;2022-12-29T14:36:42;2.10;;;1.67;;
5454;SDS011;2750;49.050;9.250;2022-12-29T14:41:58;2.90;;;1.53;;
5454;SDS011;2750;49.050;9.250;2022-12-29T14:47:04;1.93;;;1.73;;
5454;SDS011;2750;49.050;9.250;2022-12-29T14:52:13;2.50;;;1.30;;
5454;SDS011;2750;49.050;9.250;2022-12-29T14:57:19;2.43;;;1.50;;
5454;SDS011;2750;49.050;9.250;2022-12-29T15:02:30;1.23;;;1.10;;
5454;SDS011;2750;49.050;9.250;2022-12-29T15:07:37;1.80;;;1.43;;
5454;SDS011;2750;49.050;9.250;2022-12-29T15:12:40;3.03;;;2.10;;
5454;SDS011;2750;49.050;9.250;2022-12-29T15:17:48;1.47;;;1.30;;
5454;SDS011;2750;49.050;9.250;2022-12-29T15:22:52;2.27;;;1.33;;
5454;SDS011;2750;49.050;9.250;2022-12-29T15:27:57;1.87;;;1.30;;
5454;SDS011;2750;49.050;9.250;2022-12-29T15:33:08;2.50;;;1.50;;
5454;SDS011;2750;49.050;9.250;2022-12-29T15:38:21;1.90;;;0.90;;
5454;SDS011;2750;49.050;9.250;2022-12-29T15:43:27;1.53;;;1.10;;
5454;SDS011;2750;49.050;9.250;2022-12-29T15:48:48;1.50;;;1.30;;
5454;SDS011;2750;49.050;9.250;2022-12-29T15:53:50;1.50;;;1.20;;
5454;SDS011;2750;49.050;9.250;2022-12-29T15:58:53;1.53;;;1.03;;
5454;SDS011;2750;49.050;9.250;2022-12-29T16:03:55;1.33;;;1.10;;
5454;SDS011;2750;49.050;9.250;2022-12-29T16:08:59;2.07;;;1.17;;
5454;SDS011;2750;49.050;9.250;2022-12-29T16:14:06;3.13;;;1.67;;
5454;SDS011;2750;49.050;9.250;2022-12-29T16:19:13;2.57;;;1.30;;
5454;SDS011;2750;49.050;9.250;2022-12-29T16:24:17;2.90;;;1.40;;
5454;SDS011;2750;49.050;9.250;2022-12-29T16:29:22;1.37;;;1.27;;
5454;SDS011;2750;49.050;9.250;2022-12-29T16:34:28;1.67;;;1.20;;
5454;SDS011;2750;49.050;9.250;2022-12-29T16:39:31;3.40;;;1.73;;
5454;SDS011;2750;49.050;9.250;2022-12-29T16:44:35;2.67;;;1.57;;
5454;SDS011;2750;49.050;9.250;2022-12-29T16:49:39;3.23;;;2.90;;
5454;SDS011;2750;49.050;9.250;2022-12-29T16:54:44;4.03;;;3.20;;
5454;SDS011;2750;49.050;9.250;2022-12-29T16:59:51;5.60;;;3.23;;
5454;SDS011;2750;49.050;9.250;2022-12-29T17:04:57;9.87;;;8.93;;
5454;SDS011;2750;49.050;9.250;2022-12-29T17:09:59;12.40;;;11.30;;
5454;SDS011;2750;49.050;9.250;2022-12-29T17:15:00;6.77;;;6.10;;
5454;SDS011;2750;49.050;9.250;2022-12-29T17:20:14;4.03;;;2.30;;
5454;SDS011;2750;49.050;9.250;2022-12-29T17:25:18;9.27;;;8.27;;
5454;SDS011;2750;49.050;9.250;2022-12-29T17:30:22;2.93;;;2.30;;
5454;SDS011;2750;49.050;9.250;2022-12-29T17:35:26;9.17;;;8.20;;
5454;SDS011;2750;49.050;9.250;2022-12-29T17:40:29;5.97;;;5.37;;
5454;SDS011;2750;49.050;9.250;2022-12-29T17:45:33;5.23;;;4.83;;
5454;SDS011;2750;49.050;9.250;2022-12-29T17:50:36;6.83;;;3.93;;
5454;SDS011;2750;49.050;9.250;2022-12-29T17:55:37;4.87;;;4.47;;
5454;SDS011;2750;49.050;9.250;2022-12-29T18:00:40;4.97;;;3.70;;
5454;SDS011;2750;49.050;9.250;2022-12-29T18:05:43;4.87;;;3.07;;
5454;SDS011;2750;49.050;9.250;2022-12-29T18:10:45;2.87;;;2.00;;
5454;SDS011;2750;49.050;9.250;2022-12-29T18:15:47;5.83;;;4.13;;
5454;SDS011;2750;49.050;9.250;2022-12-29T18:20:51;3.87;;;3.37;;
5454;SDS011;2750;49.050;9.250;2022-12-29T18:25:55;4.50;;;1.97;;
5454;SDS011;2750;49.050;9.250;2022-12-29T18:31:00;3.93;;;1.57;;
5454;SDS011;2750;49.050;9.250;2022-12-29T18:36:03;4.30;;;2.00;;
5454;SDS011;2750;49.050;9.250;2022-12-29T18:41:08;2.73;;;1.60;;
5454;SDS011;2750;49.050;9.250;2022-12-29T18:46:16;4.93;;;1.60;;
5454;SDS011;2750;49.050;9.250;2022-12-29T18:51:20;3.33;;;1.60;;
5454;SDS011;2750;49.050;9.250;2022-12-29T18:56:22;6.13;;;1.83;;
5454;SDS011;2750;49.050;9.250;2022-12-29T19:01:25;4.57;;;2.53;;
5454;SDS011;2750;49.050;9.250;2022-12-29T19:06:28;4.67;;;1.80;;
5454;SDS011;2750;49.050;9.250;2022-12-29T19:11:30;5.77;;;1.73;;
5454;SDS011;2750;49.050;9.250;2022-12-29T19:16:31;8.40;;;4.83;;
5454;SDS011;2750;49.050;9.250;2022-12-29T19:21:34;4.87;;;2.80;;
5454;SDS011;2750;49.050;9.250;2022-12-29T19:26:36;3.33;;;2.10;;
5454;SDS011;2750;49.050;9.250;2022-12-29T19:31:39;5.80;;;1.63;;
5454;SDS011;2750;49.050;9.250;2022-12-29T19:36:42;4.70;;;1.60;;
5454;SDS011;2750;49.050;9.250;2022-12-29T19:41:45;3.00;;;1.50;;
5454;SDS011;2750;49.050;9.250;2022-12-29T19:46:47;5.80;;;1.53;;
5454;SDS011;2750;49.050;9.250;2022-12-29T19:51:50;4.07;;;1.97;;
5454;SDS011;2750;49.050;9.250;2022-12-29T19:56:51;1.80;;;1.63;;
5454;SDS011;2750;49.050;9.250;2022-12-29T20:01:53;5.27;;;1.60;;
5454;SDS011;2750;49.050;9.250;2022-12-29T20:06:57;3.77;;;1.70;;
5454;SDS011;2750;49.050;9.250;2022-12-29T20:11:58;5.00;;;2.50;;
5454;SDS011;2750;49.050;9.250;2022-12-29T20:17:00;2.47;;;1.93;;
5454;SDS011;2750;49.050;9.250;2022-12-29T20:22:05;3.60;;;2.50;;
5454;SDS011;2750;49.050;9.250;2022-12-29T20:27:10;3.73;;;2.87;;
5454;SDS011;2750;49.050;9.250;2022-12-29T20:32:17;3.63;;;1.90;;
5454;SDS011;2750;49.050;9.250;2022-12-29T20:37:23;4.60;;;2.50;;
5454;SDS011;2750;49.050;9.250;2022-12-29T20:42:26;3.37;;;1.77;;
5454;SDS011;2750;49.050;9.250;2022-12-29T20:47:27;2.63;;;1.57;;
5454;SDS011;2750;49.050;9.250;2022-12-29T20:52:30;4.43;;;1.80;;
5454;SDS011;2750;49.050;9.250;2022-12-29T20:57:31;2.63;;;1.27;;
5454;SDS011;2750;49.050;9.250;2022-12-29T21:02:33;5.23;;;2.10;;
5454;SDS011;2750;49.050;9.250;2022-12-29T21:07:36;2.93;;;1.57;;
5454;SDS011;2750;49.050;9.250;2022-12-29T21:12:40;3.37;;;1.50;;
5454;SDS011;2750;49.050;9.250;2022-12-29T21:17:42;2.57;;;1.23;;
5454;SDS011;2750;49.050;9.250;2022-12-29T21:22:46;3.20;;;1.70;;
5454;SDS011;2750;49.050;9.250;2022-12-29T21:27:48;3.30;;;1.27;;
5454;SDS011;2750;49.050;9.250;2022-12-29T21:32:50;3.67;;;1.40;;
5454;SDS011;2750;49.050;9.250;2022-12-29T21:37:52;2.97;;;1.20;;
5454;SDS011;2750;49.050;9.250;2022-12-29T21:42:54;1.83;;;1.10;;
5454;SDS011;2750;49.050;9.250;2022-12-29T21:47:56;2.53;;;1.30;;
5454;SDS011;2750;49.050;9.250;2022-12-29T21:53:18;2.77;;;1.20;;
5454;SDS011;2750;49.050;9.250;2022-12-29T21:58:20;1.70;;;0.97;;
5454;SDS011;2750;49.050;9.250;2022-12-29T22:03:39;1.73;;;1.10;;
5454;SDS011;2750;49.050;9.250;2022-12-29T22:09:00;1.87;;;0.90;;
5454;SDS011;2750;49.050;9.250;2022-12-29T22:14:20;1.50;;;1.20;;
5454;SDS011;2750;49.050;9.250;2022-12-29T22:19:21;2.27;;;1.00;;
5454;SDS011;2750;49.050;9.250;2022-12-29T22:24:24;1.67;;;1.00;;
5454;SDS011;2750;49.050;9.250;2022-12-29T22:29:25;1.90;;;1.20;;
5454;SDS011;2750;49.050;9.250;2022-12-29T22:34:27;1.73;;;0.97;;
5454;SDS011;2750;49.050;9.250;2022-12-29T22:39:30;2.80;;;1.10;;
5454;SDS011;2750;49.050;9.250;2022-12-29T22:44:31;1.60;;;1.10;;
5454;SDS011;2750;49.050;9.250;2022-12-29T22:49:33;1.33;;;1.13;;
5454;SDS011;2750;49.050;9.250;2022-12-29T22:54:36;1.53;;;1.00;;
5454;SDS011;2750;49.050;9.250;2022-12-29T22:59:37;2.47;;;0.80;;
5454;SDS011;2750;49.050;9.250;2022-12-29T23:04:39;0.87;;;0.73;;
5454;SDS011;2750;49.050;9.250;2022-12-29T23:09:41;2.07;;;0.90;;
5454;SDS011;2750;49.050;9.250;2022-12-29T23:14:43;3.47;;;0.90;;
5454;SDS011;2750;49.050;9.250;2022-12-29T23:19:44;1.27;;;0.87;;
5454;SDS011;2750;49.050;9.250;2022-12-29T23:24:47;3.00;;;0.97;;
5454;SDS011;2750;49.050;9.250;2022-12-29T23:29:49;2.53;;;1.07;;
5454;SDS011;2750;49.050;9.250;2022-12-29T23:34:50;3.30;;;1.00;;
5454;SDS011;2750;49.050;9.250;2022-12-29T23:39:53;1.23;;;0.83;;
5454;SDS011;2750;49.050;9.250;2022-12-29T23:44:55;4.23;;;0.93;;
5454;SDS011;2750;49.050;9.250;2022-12-29T23:49:56;2.53;;;0.97;;
5454;SDS011;2750;49.050;9.250;2022-12-29T23:54:59;3.13;;;1.03;;
